• Join FlightAware (Why Join?)
  • Login
  • US Flag 
09:47AM EDT


 

Airport Tracker/Info


-or-


 

Live Flight TrackerFlight Track Log ✈ RPA3392 ✈ 10-Oct-2013 ✈ KDCA - KALB

Flight Track Log - Related Links

Times and Time Zones

All times are in EDT time to prevent confusion due to time zone crossing. See the RPA3392 flight status page for this flight to view local times or setup timezone preferences in your user account.

Time Position Orientation Groundspeed Altitude Reporting Facility
EDT Latitude Longitude Course Direction KTS MPH feet Rate Location/Type
10:42PM 38.9103 -77.0989 47° Northeast 179 206 2,700  Level Washington Center
10:43PM 38.9678 -77.1642 319° Northwest 229 264 4,700 2,700 Climbing Washington Center
10:44PM 39.2244 -76.7473 83° East  Level Estimated
10:44PM 39.0294 -77.2322 319° Northwest 283 326 8,200  Level Washington Center
10:45PM 39.3174 -76.6743 81° East  Level Estimated
10:45PM 39.0964 -77.2069 16° North 236 272 10,000  Level Washington Center
10:46PM 39.4104 -76.6010 47° Northeast  Level Estimated
10:46PM 39.0622 -77.1208 117° Southeast 146 168 12,200  Level Washington Center
10:47PM 39.0531 -77.0189 97° East 225 259 14,700 2,160 Climbing Washington Center
10:48PM 39.0647 -76.9042 83° East 265 305 16,500 1,560 Climbing Washington Center
10:49PM 39.0722 -76.7733 86° East 326 375 17,900 1,440 Climbing Washington Center
10:50PM 39.0669 -76.6664 94° East 348 400 19,400 1,800 Climbing Washington Center
10:51PM 39.0600 -76.5167 93° East 369 425 21,500 1,140 Climbing Washington Center
10:56PM 39.2790 -75.7680 93° East 100 115 27,600 1,020 Climbing FlightAware
10:57PM 39.3570 -75.6680 45° Northeast 423 487 28,700 1,080 Climbing FlightAware
10:58PM 39.3980 -75.6180 43° Northeast 429 494 29,200 1,080 Climbing FlightAware
10:59PM 39.4740 -75.5270 43° Northeast 417 480 30,300 1,080 Climbing FlightAware
10:59PM 39.5290 -75.4570 44° Northeast 421 484 31,000 600 Climbing FlightAware
11:00PM 39.5770 -75.3970 44° Northeast 425 489 31,000  Level FlightAware
11:01PM 39.6420 -75.3180 43° Northeast 424 488 31,000  Level FlightAware
11:01PM 39.6880 -75.2630 43° Northeast 424 488 31,000  Level FlightAware
11:02PM 39.7320 -75.2100 43° Northeast 424 488 31,000  Level FlightAware
11:03PM 39.8000 -75.1200 45° Northeast 424 488 31,000  Level FlightAware
11:03PM 39.8030 -75.1150 52° Northeast 424 488 31,000  Level FlightAware
11:03PM 39.8000 -75.0290 93° East 424 488 31,000  Level FlightAware
11:04PM 39.9100 -74.9840 17° North 424 488 31,000  Level FlightAware
11:04PM 39.9610 -74.9200 44° Northeast 420 483 31,000  Level FlightAware
11:05PM 40.0400 -74.8220 44° Northeast 427 491 31,000  Level FlightAware
11:06PM 40.0890 -74.7600 44° Northeast 424 488 31,000  Level FlightAware
11:07PM 40.1360 -74.7010 44° Northeast 424 488 31,000  Level FlightAware
11:07PM 40.1950 -74.6250 45° Northeast 424 488 31,000  Level FlightAware
11:08PM 40.2580 -74.5450 44° Northeast 432 497 31,000  Level FlightAware
11:08PM 40.2770 -74.5200 45° Northeast 431 496 31,000  Level FlightAware
11:08PM 40.2940 -74.4990 43° Northeast 431 496 31,000  Level FlightAware
11:09PM 40.3460 -74.4420 40° Northeast 431 496 31,000  Level FlightAware
11:10PM 40.4060 -74.3570 47° Northeast 429 494 31,000  Level FlightAware
11:10PM 40.4490 -74.3020 44° Northeast 429 494 31,000  Level FlightAware
11:11PM 40.4880 -74.2520 44° Northeast 429 494 31,000  Level FlightAware
11:11PM 40.5320 -74.1970 44° Northeast 429 494 31,000  Level FlightAware
11:12PM 40.5760 -74.1410 44° Northeast 429 494 31,000  Level FlightAware
11:13PM 40.6190 -74.0860 44° Northeast 429 494 31,000  Level FlightAware
11:13PM 40.6630 -74.0300 44° Northeast 429 494 31,000  Level FlightAware
11:14PM 40.7070 -73.9750 43° Northeast 429 494 31,000  Level FlightAware
11:14PM 40.7510 -73.9170 45° Northeast 429 494 31,000  Level FlightAware
11:15PM 40.7950 -73.8620 43° Northeast 429 494 31,000  Level FlightAware
11:16PM 40.8390 -73.8060 44° Northeast 429 494 31,000  Level FlightAware
11:16PM 40.8830 -73.7500 44° Northeast 429 494 31,000  Level FlightAware
11:17PM 40.9260 -73.6940 45° Northeast 429 494 31,000  Level FlightAware
11:18PM 40.9710 -73.6370 44° Northeast 429 494 31,000  Level FlightAware
11:18PM 41.0150 -73.5810 44° Northeast 429 494 31,000  Level FlightAware
11:19PM 41.0580 -73.5250 44° Northeast 429 494 31,000 -4,500 Level FlightAware
11:20PM 41.5842 -74.0692 44° Northeast 408 470 24,400 -4,740 Descending Boston Center
11:21PM 41.6931 -74.0442 10° North 401 461 22,200 -2,340 Descending Boston Center
11:22PM 41.7933 -74.0217 North 385 443 19,900 -2,220 Descending Boston Center
11:23PM 41.8978 -73.9964 10° North 372 428 17,800 -2,160 Descending Boston Center
11:23PM 41.9542 -73.9839 North 364 419 16,400 -2,280 Descending Boston Center
11:24PM 42.0067 -73.9683 12° North 359 413 15,200 -2,460 Descending Boston Center
11:25PM 42.0903 -73.9453 12° North 356 410 13,000 -2,580 Descending Boston Center
11:25PM 42.1050 -73.9456 359° North 355 409 12,600 -2,340 Descending Boston Center
11:26PM 42.1761 -73.9219 14° North 351 404 10,700 -2,280 Descending Boston Center
11:26PM 42.1989 -73.9225 359° North 348 400 10,400 -840 Descending Boston Center
11:27PM 42.2703 -73.8992 14° North 323 372 9,900 -660 Descending Boston Center
11:27PM 42.2806 -73.8992 360° North 286 329 9,700 -1,560 Descending Boston Center
11:28PM 42.3392 -73.8839 11° North 287 330 8,400 -1,500 Descending Boston Center
11:28PM 42.3622 -73.8786 10° North 271 312 8,200 -1,260 Descending Boston Center
11:29PM 42.4144 -73.8631 12° North 261 300 7,200 -1,500 Descending Boston Center
11:29PM 42.4289 -73.8606 North 234 269 6,800 -1,500 Descending Boston Center
11:30PM 42.4708 -73.8503 10° North 233 268 5,700 -1,560 Descending Boston Center
11:30PM 42.4897 -73.8478 North 216 249 5,200 -1,440 Descending Boston Center
11:31PM 42.5503 -73.8239 16° North 221 254 4,000 -1,260 Descending Boston Center
11:32PM 42.6069 -73.8053 14° North 222 255 2,700 -1,080 Descending Boston Center
11:33PM 42.6464 -73.8033 North 215 247 2,100 -1,020 Descending Boston Center
11:33PM 42.6631 -73.8039 359° North 194 223 1,700 -420 Descending Boston Center
11:34PM 42.7092 -73.7936 North 215 247 1,700 -840 Level Boston Center
11:34PM 42.7089 -73.8075 268° West 130 150 800 -2,580 Descending Boston Center